Time;durP1;ratioP1;P1;durP2;ratioP2;P2;SDS_P1;SDS_P2;PMS_P1;PMS_P2;Temp;Humidity;BMP_temperature;BMP_pressure;BME280_temperature;BME280_humidity;BME280_pressure;Samples;Min_cycle;Max_cycle;Signal;HPM_P1;HPM_P2
2022/01/25 00:09:33;;;;;;;7.40;6.70;;;5.60;99.90;;;;;;5031181;28;20180;-70
2022/01/25 00:31:03;;;;;;;8.60;7.27;;;5.50;99.90;;;;;;5036824;28;20186;-70
2022/01/25 00:33:30;;;;;;;7.90;7.07;;;5.60;99.90;;;;;;5030593;28;20179;-70
2022/01/25 00:35:59;;;;;;;8.67;7.53;;;5.60;99.90;;;;;;5028779;28;20182;-70
2022/01/25 00:38:25;;;;;;;8.70;7.23;;;5.60;99.90;;;;;;5036139;28;20209;-69
2022/01/25 00:40:51;;;;;;;7.63;6.83;;;5.60;99.90;;;;;;5031383;28;20480;-69
2022/01/25 00:43:19;;;;;;;8.07;7.27;;;5.60;99.90;;;;;;5031654;28;20182;-66
2022/01/25 00:45:44;;;;;;;7.43;6.53;;;5.60;99.90;;;;;;5024208;28;20173;-69
2022/01/25 00:48:19;;;;;;;8.17;7.27;;;5.60;99.90;;;;;;5027769;28;20216;-70
2022/01/25 00:50:46;;;;;;;7.73;6.93;;;5.70;99.90;;;;;;5031917;28;20185;-69
2022/01/25 00:55:58;;;;;;;9.27;7.67;;;5.70;99.90;;;;;;5023505;28;20239;-68
2022/01/25 00:58:23;;;;;;;8.53;7.67;;;5.70;99.90;;;;;;5018244;28;20202;-68
2022/01/25 01:00:50;;;;;;;8.60;7.57;;;5.70;99.90;;;;;;5031757;28;20340;-69
2022/01/25 01:03:16;;;;;;;7.53;6.73;;;5.80;99.90;;;;;;5046573;28;20216;-68
2022/01/25 01:05:45;;;;;;;7.53;6.77;;;5.80;99.90;;;;;;5031747;28;20236;-69
2022/01/25 01:08:10;;;;;;;8.50;6.87;;;5.80;99.90;;;;;;5032925;28;20259;-69
2022/01/25 01:10:36;;;;;;;8.23;7.20;;;5.80;99.90;;;;;;5029429;28;20209;-68
2022/01/25 01:15:48;;;;;;;8.47;7.43;;;5.90;99.90;;;;;;5034633;28;20188;-69
2022/01/25 01:32:00;;;;;;;8.73;6.90;;;5.90;99.90;;;;;;5032881;28;20169;-70
2022/01/25 01:35:35;;;;;;;9.50;7.10;;;5.90;99.90;;;;;;5035839;28;20261;-69
2022/01/25 01:38:00;;;;;;;8.90;7.00;;;5.90;99.90;;;;;;5020420;28;20198;-67
2022/01/25 01:48:25;;;;;;;8.63;7.20;;;5.90;99.90;;;;;;5015219;28;20257;-70
2022/01/25 01:50:55;;;;;;;7.70;6.50;;;5.90;99.90;;;;;;5033234;28;20208;-70
2022/01/25 01:53:23;;;;;;;8.60;7.70;;;5.90;99.90;;;;;;5034445;28;20185;-70
2022/01/25 01:55:49;;;;;;;8.47;7.27;;;5.90;99.90;;;;;;5032992;28;20173;-69
2022/01/25 01:58:15;;;;;;;9.13;7.27;;;5.90;99.90;;;;;;5032528;28;20209;-70
2022/01/25 02:00:44;;;;;;;8.43;7.53;;;5.90;99.90;;;;;;5041777;28;20212;-70
2022/01/25 02:03:10;;;;;;;7.60;6.80;;;5.90;99.90;;;;;;5030887;28;20186;-70
2022/01/25 02:05:43;;;;;;;7.90;6.27;;;5.90;99.90;;;;;;5020369;28;20239;-69
2022/01/25 02:08:13;;;;;;;7.83;6.63;;;5.90;99.90;;;;;;5033207;28;20610;-70
2022/01/25 02:10:41;;;;;;;7.80;6.57;;;5.90;99.90;;;;;;5031198;28;20243;-70
2022/01/25 02:13:09;;;;;;;8.70;6.50;;;5.90;99.90;;;;;;5034953;28;20174;-67
2022/01/25 02:15:37;;;;;;;8.50;7.70;;;5.90;99.90;;;;;;5028008;28;20255;-69
2022/01/25 02:23:39;;;;;;;7.67;6.87;;;5.90;99.90;;;;;;5027420;28;20269;-69
2022/01/25 02:26:07;;;;;;;8.60;7.70;;;5.90;99.90;;;;;;5034290;28;20190;-71
2022/01/25 02:28:37;;;;;;;8.97;7.50;;;5.90;99.90;;;;;;5024182;28;20195;-69
2022/01/25 02:31:05;;;;;;;8.63;7.73;;;5.90;99.90;;;;;;5035029;28;20272;-70
2022/01/25 02:33:31;;;;;;;9.10;8.17;;;5.90;99.90;;;;;;5029199;28;20273;-70
2022/01/25 02:36:02;;;;;;;9.33;8.27;;;5.90;99.90;;;;;;5034830;28;20206;-68
2022/01/25 02:38:31;;;;;;;8.37;7.47;;;5.90;99.90;;;;;;5036278;28;20452;-71
2022/01/25 02:40:58;;;;;;;9.23;8.00;;;5.80;99.90;;;;;;5033311;28;20204;-68
2022/01/25 02:43:25;;;;;;;11.00;7.27;;;5.80;99.90;;;;;;5030260;28;20250;-71
2022/01/25 02:49:00;;;;;;;8.13;7.03;;;5.80;99.90;;;;;;4954408;29;20184;-67
2022/01/25 02:51:33;;;;;;;8.53;7.00;;;5.90;99.90;;;;;;5019201;28;20186;-68
2022/01/25 02:54:07;;;;;;;9.33;7.23;;;5.90;99.90;;;;;;5032276;28;20270;-70
2022/01/25 02:56:34;;;;;;;9.57;7.13;;;5.90;99.90;;;;;;5028614;28;20195;-68
2022/01/25 02:59:00;;;;;;;8.17;7.37;;;5.90;99.90;;;;;;5030260;28;20210;-68
2022/01/25 03:01:28;;;;;;;8.90;7.70;;;5.90;99.90;;;;;;5033664;28;20170;-70
2022/01/25 03:03:56;;;;;;;8.97;7.43;;;5.90;99.90;;;;;;5033200;28;20198;-69
2022/01/25 03:06:26;;;;;;;8.60;7.60;;;5.90;99.90;;;;;;5029340;28;20182;-68
2022/01/25 03:08:52;;;;;;;8.00;7.13;;;5.90;99.90;;;;;;5035809;28;20178;-69
2022/01/25 03:11:21;;;;;;;8.33;7.50;;;5.90;99.90;;;;;;5032130;28;20241;-68
2022/01/25 03:13:52;;;;;;;8.40;7.53;;;5.90;99.90;;;;;;5029264;28;20216;-67
2022/01/25 03:16:31;;;;;;;8.33;7.00;;;5.90;99.90;;;;;;5031181;28;20186;-69
2022/01/25 03:19:02;;;;;;;9.10;8.10;;;5.90;99.90;;;;;;5032128;28;20214;-68
2022/01/25 03:23:54;;;;;;;8.80;7.70;;;5.90;99.90;;;;;;5032100;28;20207;-65
2022/01/25 03:26:27;;;;;;;8.77;7.73;;;5.90;99.90;;;;;;5026768;28;20228;-68
2022/01/25 03:28:56;;;;;;;8.23;7.43;;;5.90;99.90;;;;;;5029803;28;20281;-66
2022/01/25 03:31:24;;;;;;;7.90;7.10;;;5.80;99.90;;;;;;5031800;28;20217;-68
2022/01/25 03:33:52;;;;;;;8.83;7.93;;;5.80;99.90;;;;;;5030208;28;20276;-67
2022/01/25 03:36:19;;;;;;;10.10;7.90;;;5.80;99.90;;;;;;5035369;28;20202;-68
2022/01/25 03:38:47;;;;;;;8.47;7.53;;;5.80;99.90;;;;;;5030030;28;20206;-75
2022/01/25 03:41:19;;;;;;;9.63;7.40;;;5.80;99.90;;;;;;5031619;28;20260;-76
2022/01/25 03:43:53;;;;;;;8.70;7.80;;;5.80;99.90;;;;;;5021445;28;20177;-75
2022/01/25 03:46:41;;;;;;;9.83;8.20;;;5.80;99.90;;;;;;5028677;28;20206;-76
2022/01/25 03:51:54;;;;;;;13.03;8.73;;;5.80;99.90;;;;;;5027306;28;20204;-74
2022/01/25 03:54:24;;;;;;;10.00;8.43;;;5.80;99.90;;;;;;5033007;28;20178;-76
2022/01/25 03:56:53;;;;;;;11.40;8.00;;;5.80;99.90;;;;;;5033926;28;20236;-77
2022/01/25 03:59:21;;;;;;;9.07;8.13;;;5.80;99.90;;;;;;5034650;28;20210;-73
2022/01/25 04:01:46;;;;;;;9.67;8.67;;;5.80;99.90;;;;;;5032662;28;20375;-75
2022/01/25 04:04:18;;;;;;;11.13;8.10;;;5.80;99.90;;;;;;5026844;28;20182;-70
2022/01/25 04:06:48;;;;;;;9.00;7.77;;;5.80;99.90;;;;;;5031339;28;20202;-76
2022/01/25 04:09:21;;;;;;;9.63;7.40;;;5.80;99.90;;;;;;5034069;28;20216;-76
2022/01/25 04:11:46;;;;;;;9.50;7.60;;;5.80;99.90;;;;;;5031852;28;20200;-76
2022/01/25 04:14:12;;;;;;;8.97;7.50;;;5.80;99.90;;;;;;5032633;28;20178;-72
2022/01/25 04:16:57;;;;;;;;;;;;;;;;;;;;;
2022/01/25 04:19:39;;;;;;;7.57;6.70;;;5.80;99.90;;;;;;5030374;28;20272;-74
2022/01/25 04:27:27;;;;;;;7.27;6.13;;;5.80;99.90;;;;;;5026234;28;20208;-73
2022/01/25 04:29:55;;;;;;;7.37;6.10;;;5.70;99.90;;;;;;5028855;28;20181;-72
2022/01/25 04:32:40;;;;;;;7.03;5.93;;;5.70;99.90;;;;;;5032100;28;20238;-73
2022/01/25 04:35:26;;;;;;;5.67;5.07;;;5.60;99.90;;;;;;5042091;28;20182;-73
2022/01/25 04:51:49;;;;;;;6.70;5.73;;;5.20;99.90;;;;;;5028915;28;20233;-77
2022/01/25 05:00:29;;;;;;;8.03;6.60;;;5.10;99.90;;;;;;5032363;28;20277;-70
2022/01/25 05:04:59;;;;;;;8.20;6.67;;;5.00;99.90;;;;;;5029802;28;20178;-78
2022/01/25 05:09:51;;;;;;;9.93;7.17;;;5.00;99.90;;;;;;5033295;28;20200;-77
2022/01/25 05:12:31;;;;;;;10.10;7.53;;;5.00;99.90;;;;;;5027934;28;20197;-78
2022/01/25 05:15:06;;;;;;;8.77;7.00;;;4.90;99.90;;;;;;5028237;28;20192;-75
2022/01/25 05:17:40;;;;;;;9.63;7.17;;;4.90;99.90;;;;;;5029906;28;20195;-77
2022/01/25 05:22:51;;;;;;;8.23;6.87;;;4.90;99.90;;;;;;5027314;28;20193;-77
2022/01/25 05:25:22;;;;;;;9.80;6.97;;;4.90;99.90;;;;;;5022915;28;20187;-75
2022/01/25 05:27:50;;;;;;;11.43;7.70;;;4.90;99.90;;;;;;5026518;28;20174;-78
2022/01/25 05:30:15;;;;;;;9.43;7.60;;;4.90;99.90;;;;;;5027145;28;20174;-73
2022/01/25 05:32:43;;;;;;;10.70;7.87;;;4.90;99.90;;;;;;5031676;28;20186;-73
2022/01/25 05:35:11;;;;;;;10.50;8.10;;;4.90;99.90;;;;;;5020591;28;20199;-77
2022/01/25 05:37:41;;;;;;;9.07;7.53;;;4.90;99.90;;;;;;5028885;28;20183;-81
2022/01/25 05:40:13;;;;;;;11.30;8.50;;;4.90;99.90;;;;;;5031782;28;20392;-76
2022/01/25 05:45:25;;;;;;;10.90;8.43;;;4.90;99.90;;;;;;5029740;28;20243;-73
2022/01/25 05:47:51;;;;;;;12.47;8.17;;;4.80;99.90;;;;;;5030340;28;20185;-75
2022/01/25 05:50:16;;;;;;;10.97;8.27;;;4.80;99.90;;;;;;5029314;28;20185;-76
2022/01/25 05:52:42;;;;;;;10.80;7.80;;;4.80;99.90;;;;;;5028024;28;20198;-79
2022/01/25 05:55:11;;;;;;;11.27;8.60;;;4.80;99.90;;;;;;5022454;28;20178;-75
2022/01/25 05:57:37;;;;;;;10.23;8.07;;;4.80;99.90;;;;;;5025077;28;20199;-76
2022/01/25 06:00:05;;;;;;;10.60;7.50;;;4.80;99.90;;;;;;5031426;28;20205;-76
2022/01/25 06:02:34;;;;;;;11.07;8.47;;;4.80;99.90;;;;;;5028255;28;20182;-78
2022/01/25 06:05:00;;;;;;;11.00;8.13;;;4.80;99.90;;;;;;5041182;28;20174;-75
2022/01/25 06:07:26;;;;;;;10.60;7.93;;;4.80;99.90;;;;;;5027263;28;20425;-78
2022/01/25 06:09:53;;;;;;;10.63;8.27;;;4.80;99.90;;;;;;5030522;28;20198;-78
2022/01/25 06:12:18;;;;;;;10.77;8.17;;;4.80;99.90;;;;;;5028053;28;20269;-74
2022/01/25 06:14:44;;;;;;;11.17;8.00;;;4.80;99.90;;;;;;5028050;28;20281;-77
2022/01/25 06:17:09;;;;;;;10.97;8.27;;;4.80;99.90;;;;;;5027679;28;20179;-76
2022/01/25 06:19:35;;;;;;;10.43;8.17;;;4.80;99.90;;;;;;5031382;28;20255;-73
2022/01/25 06:22:03;;;;;;;10.30;8.20;;;4.80;99.90;;;;;;5030730;28;20193;-72
2022/01/25 06:24:29;;;;;;;11.20;8.07;;;4.80;99.90;;;;;;5029037;28;20186;-76
2022/01/25 06:26:54;;;;;;;12.73;8.13;;;4.70;99.90;;;;;;5034262;28;20181;-76
2022/01/25 06:29:22;;;;;;;10.27;8.00;;;4.70;99.90;;;;;;5030885;28;20233;-78
2022/01/25 06:31:52;;;;;;;11.23;8.80;;;4.70;99.90;;;;;;5027049;28;20188;-73
2022/01/25 06:34:18;;;;;;;13.33;8.63;;;4.70;99.90;;;;;;5031385;28;20205;-80
2022/01/25 06:36:46;;;;;;;10.80;8.47;;;4.60;99.90;;;;;;5029269;28;20205;-80
2022/01/25 06:39:16;;;;;;;11.03;8.07;;;4.60;99.90;;;;;;5027950;28;20197;-74
2022/01/25 06:41:42;;;;;;;11.57;8.43;;;4.60;99.90;;;;;;5029056;28;20185;-73
2022/01/25 06:44:08;;;;;;;11.67;8.20;;;4.60;99.90;;;;;;5030032;28;20179;-73
2022/01/25 06:46:36;;;;;;;14.70;8.53;;;4.60;99.90;;;;;;5030236;28;20170;-68
2022/01/25 06:49:05;;;;;;;10.67;7.93;;;4.60;99.90;;;;;;5030158;28;20185;-67
2022/01/25 06:51:33;;;;;;;11.87;7.83;;;4.60;99.90;;;;;;5029740;28;20182;-70
2022/01/25 06:54:01;;;;;;;11.93;8.23;;;4.60;99.90;;;;;;5025964;28;20215;-70
2022/01/25 06:56:27;;;;;;;10.77;7.93;;;4.60;99.90;;;;;;5029363;28;20186;-72
2022/01/25 06:58:57;;;;;;;13.90;8.40;;;4.60;99.90;;;;;;5031769;28;20212;-71
2022/01/25 07:01:25;;;;;;;12.63;8.77;;;4.60;99.90;;;;;;5029479;28;20194;-73
2022/01/25 07:03:51;;;;;;;11.47;8.30;;;4.60;99.90;;;;;;5028440;28;20317;-72
2022/01/25 07:06:19;;;;;;;10.43;7.60;;;4.60;99.90;;;;;;5024977;28;20403;-69
2022/01/25 07:08:47;;;;;;;10.53;7.90;;;4.60;99.90;;;;;;5040890;28;20511;-66
2022/01/25 07:11:14;;;;;;;10.97;7.43;;;4.50;99.90;;;;;;5032803;28;20231;-72
2022/01/25 07:13:46;;;;;;;12.03;8.13;;;4.50;99.90;;;;;;5034296;28;20178;-74
2022/01/25 07:16:11;;;;;;;12.03;7.90;;;4.50;99.90;;;;;;5031402;28;20185;-71
2022/01/25 07:18:37;;;;;;;13.03;7.97;;;4.50;99.90;;;;;;5038443;28;20221;-74
2022/01/25 07:21:06;;;;;;;12.23;7.77;;;4.50;99.90;;;;;;5021528;28;20186;-72
2022/01/25 07:23:38;;;;;;;14.43;7.63;;;4.40;99.90;;;;;;5031239;28;20249;-72
2022/01/25 07:26:04;;;;;;;13.17;7.80;;;4.40;99.90;;;;;;5031571;28;20240;-72
2022/01/25 07:28:30;;;;;;;12.37;7.87;;;4.40;99.90;;;;;;5031718;28;20191;-72
2022/01/25 07:30:58;;;;;;;12.67;7.93;;;4.40;99.90;;;;;;5031966;28;20260;-77
2022/01/25 07:33:24;;;;;;;11.57;7.60;;;4.50;99.90;;;;;;5028840;28;20194;-70
2022/01/25 07:35:52;;;;;;;11.57;7.77;;;4.50;99.90;;;;;;5029790;28;20190;-75
2022/01/25 07:38:18;;;;;;;11.90;7.60;;;4.50;99.90;;;;;;5033994;28;20201;-76
2022/01/25 07:40:46;;;;;;;13.47;7.50;;;4.50;99.90;;;;;;5029273;28;20241;-77
2022/01/25 07:43:11;;;;;;;12.30;7.13;;;4.50;99.90;;;;;;5030844;28;20178;-80
2022/01/25 07:45:42;;;;;;;12.00;8.00;;;4.50;99.90;;;;;;5025000;28;20200;-76
2022/01/25 07:48:14;;;;;;;13.50;7.90;;;4.50;99.90;;;;;;5024087;28;20248;-78
2022/01/25 07:50:39;;;;;;;10.93;7.40;;;4.50;99.90;;;;;;5031506;28;21974;-81
2022/01/25 07:53:09;;;;;;;10.77;7.70;;;4.50;99.90;;;;;;5025492;28;20182;-71
2022/01/25 07:55:35;;;;;;;11.30;7.90;;;4.50;99.90;;;;;;5030121;28;20397;-80
2022/01/25 07:58:01;;;;;;;13.70;7.80;;;4.50;99.90;;;;;;5031045;28;20181;-75
2022/01/25 08:00:29;;;;;;;11.93;7.60;;;4.50;99.90;;;;;;5029294;28;20247;-81
2022/01/25 08:02:57;;;;;;;12.30;7.60;;;4.50;99.90;;;;;;5032470;28;20173;-78
2022/01/25 08:05:26;;;;;;;11.60;7.57;;;4.50;99.90;;;;;;5029010;28;20208;-65
2022/01/25 08:07:53;;;;;;;12.17;7.10;;;4.50;99.90;;;;;;5029793;28;20231;-80
2022/01/25 08:10:23;;;;;;;13.47;8.23;;;4.50;99.90;;;;;;5022648;28;20181;-78
2022/01/25 08:12:49;;;;;;;10.03;7.07;;;4.50;99.90;;;;;;5028421;28;20189;-79
2022/01/25 08:15:16;;;;;;;11.23;7.27;;;4.50;99.90;;;;;;5027889;28;20177;-84
2022/01/25 08:17:45;;;;;;;13.70;8.63;;;4.50;99.90;;;;;;5042921;28;20174;-78
2022/01/25 08:20:11;;;;;;;13.20;7.97;;;4.50;99.90;;;;;;5027050;28;20205;-81
2022/01/25 08:22:40;;;;;;;12.23;8.20;;;4.50;99.90;;;;;;5027601;28;20232;-83
2022/01/25 08:25:07;;;;;;;11.63;8.10;;;4.50;99.90;;;;;;5029591;28;20189;-80
2022/01/25 08:27:35;;;;;;;12.60;8.50;;;4.50;99.90;;;;;;5028049;28;20201;-78
2022/01/25 08:30:03;;;;;;;12.37;8.10;;;4.50;99.90;;;;;;5029598;28;20186;-79
2022/01/25 08:32:28;;;;;;;12.13;7.60;;;4.50;99.90;;;;;;5030770;28;20196;-85
2022/01/25 08:34:54;;;;;;;11.83;7.63;;;4.50;99.90;;;;;;5031696;28;20186;-86
2022/01/25 08:37:22;;;;;;;12.50;7.87;;;4.50;99.90;;;;;;5029358;28;20225;-85
2022/01/25 08:39:48;;;;;;;12.67;7.60;;;4.50;99.90;;;;;;5029853;28;20210;-72
2022/01/25 08:42:13;;;;;;;13.63;8.30;;;4.50;99.90;;;;;;5031153;28;20185;-83
2022/01/25 08:44:39;;;;;;;12.10;7.87;;;4.50;99.90;;;;;;5028698;28;20182;-69
2022/01/25 08:47:08;;;;;;;14.43;9.13;;;4.40;99.90;;;;;;5028740;28;20255;-82
2022/01/25 08:49:35;;;;;;;13.53;7.90;;;4.40;99.90;;;;;;5034146;28;20212;-83
2022/01/25 08:52:00;;;;;;;15.43;8.60;;;4.40;99.90;;;;;;5032593;28;20204;-80
2022/01/25 08:54:29;;;;;;;15.30;8.07;;;4.40;99.90;;;;;;5031847;28;20182;-79
2022/01/25 08:56:55;;;;;;;13.53;7.67;;;4.40;99.90;;;;;;5030081;28;20174;-74
2022/01/25 08:59:23;;;;;;;14.07;7.63;;;4.40;99.90;;;;;;5027592;28;20209;-76
2022/01/25 09:01:48;;;;;;;13.77;7.80;;;4.40;99.90;;;;;;5027383;28;20261;-68
2022/01/25 09:04:17;;;;;;;13.23;7.63;;;4.50;99.90;;;;;;5031745;28;20177;-77
2022/01/25 09:06:45;;;;;;;13.50;7.20;;;4.50;99.90;;;;;;5029935;28;20182;-74
2022/01/25 09:09:13;;;;;;;13.37;7.83;;;4.50;99.90;;;;;;5023208;28;20403;-82
2022/01/25 09:11:43;;;;;;;12.77;8.10;;;4.50;99.90;;;;;;5031305;28;20170;-78
2022/01/25 09:14:09;;;;;;;14.03;8.07;;;4.50;99.90;;;;;;5026670;28;20397;-82
2022/01/25 09:16:35;;;;;;;14.27;8.47;;;4.60;99.90;;;;;;5029759;28;20243;-84
2022/01/25 09:19:01;;;;;;;13.90;7.87;;;4.60;99.90;;;;;;5028834;28;20213;-84
2022/01/25 09:21:30;;;;;;;12.43;7.83;;;4.60;99.90;;;;;;5035622;28;20174;-78
2022/01/25 09:23:55;;;;;;;12.10;8.07;;;4.60;99.90;;;;;;5030340;28;20407;-80
2022/01/25 09:26:23;;;;;;;14.00;7.93;;;4.60;99.90;;;;;;5025897;28;20191;-78
2022/01/25 09:28:55;;;;;;;15.87;8.40;;;4.60;99.90;;;;;;5028458;28;20218;-83
2022/01/25 09:31:24;;;;;;;13.37;8.07;;;4.70;99.90;;;;;;5028703;28;20198;-79
2022/01/25 09:33:50;;;;;;;14.10;8.17;;;4.70;99.90;;;;;;5030642;28;20185;-83
2022/01/25 09:36:18;;;;;;;17.50;8.90;;;4.70;99.90;;;;;;5028185;28;20509;-85
2022/01/25 09:38:49;;;;;;;15.30;7.87;;;4.70;99.90;;;;;;5031717;28;20220;-85
2022/01/25 09:41:18;;;;;;;14.37;8.27;;;4.70;99.90;;;;;;5020939;28;20170;-81
2022/01/25 09:43:44;;;;;;;13.57;8.13;;;4.70;99.90;;;;;;5025549;28;20282;-76
2022/01/25 09:46:10;;;;;;;14.77;7.90;;;4.70;99.90;;;;;;5030684;28;20277;-79
2022/01/25 09:48:35;;;;;;;12.77;7.67;;;4.70;99.90;;;;;;5027811;28;20528;-74
2022/01/25 09:51:05;;;;;;;13.67;8.00;;;4.70;99.90;;;;;;5037094;28;20213;-85
2022/01/25 09:53:33;;;;;;;14.50;7.80;;;4.80;99.90;;;;;;5034703;28;20443;-77
2022/01/25 09:55:59;;;;;;;14.63;7.57;;;4.70;99.90;;;;;;5030117;28;20189;-78
2022/01/25 09:58:27;;;;;;;13.70;9.10;;;4.80;99.90;;;;;;5030295;28;20209;-83
2022/01/25 10:01:00;;;;;;;13.73;8.07;;;4.80;99.90;;;;;;5030770;28;20166;-83
2022/01/25 10:05:58;;;;;;;13.77;7.50;;;4.80;99.90;;;;;;5028407;28;20178;-81
2022/01/25 10:08:26;;;;;;;12.27;7.57;;;4.80;99.90;;;;;;5030356;28;20201;-82
2022/01/25 10:11:06;;;;;;;11.73;7.70;;;4.80;99.90;;;;;;5029475;28;20178;-81
2022/01/25 10:13:36;;;;;;;12.60;7.73;;;4.80;99.90;;;;;;5027766;28;20174;-80
2022/01/25 10:16:08;;;;;;;13.00;8.07;;;4.80;99.90;;;;;;5031996;28;20178;-80
2022/01/25 10:18:52;;;;;;;13.30;8.27;;;4.70;99.90;;;;;;5028045;28;20208;-66
2022/01/25 10:21:25;;;;;;;11.80;7.33;;;4.70;99.90;;;;;;5027717;28;20198;-80
2022/01/25 10:24:19;;;;;;;13.60;7.27;;;4.70;99.90;;;;;;5026175;28;20240;-76
2022/01/25 10:26:54;;;;;;;10.77;6.53;;;4.70;99.90;;;;;;5032946;28;20221;-78
2022/01/25 10:29:23;;;;;;;11.73;7.17;;;4.70;99.90;;;;;;5033927;28;20177;-79
2022/01/25 10:32:17;;;;;;;12.37;7.50;;;4.70;99.90;;;;;;5032842;28;20334;-83
2022/01/25 10:34:53;;;;;;;12.83;7.83;;;4.70;99.90;;;;;;5027674;28;20198;-81
2022/01/25 10:37:24;;;;;;;12.47;7.60;;;4.70;99.90;;;;;;5033291;28;20240;-76
2022/01/25 10:39:52;;;;;;;11.83;7.50;;;4.70;99.90;;;;;;5027822;28;20357;-80
2022/01/25 10:42:30;;;;;;;13.00;7.60;;;4.70;99.90;;;;;;5035457;28;20252;-79
2022/01/25 10:45:05;;;;;;;12.33;8.10;;;4.70;99.90;;;;;;5024717;28;20183;-80
2022/01/25 10:47:52;;;;;;;12.83;7.60;;;4.80;99.90;;;;;;5034662;28;20178;-85
2022/01/25 10:50:22;;;;;;;14.10;8.07;;;4.80;99.90;;;;;;5026837;28;20198;-83
2022/01/25 10:53:10;;;;;;;12.83;7.80;;;4.80;99.90;;;;;;5034103;28;20182;-77
2022/01/25 10:55:47;;;;;;;12.20;8.00;;;4.90;99.90;;;;;;5030888;28;20240;-79
2022/01/25 10:58:14;;;;;;;15.93;8.63;;;4.90;99.90;;;;;;5031214;28;20174;-80
2022/01/25 11:00:46;;;;;;;13.60;8.30;;;4.90;99.90;;;;;;5028817;28;20293;-82
2022/01/25 11:03:25;;;;;;;15.67;8.63;;;5.00;99.90;;;;;;5026115;28;20193;-77
2022/01/25 11:05:51;;;;;;;11.10;7.93;;;5.00;99.90;;;;;;5047475;28;20182;-77
2022/01/25 11:08:20;;;;;;;13.70;8.60;;;5.00;99.90;;;;;;5027096;28;20201;-83
2022/01/25 11:10:52;;;;;;;12.90;8.37;;;5.10;99.90;;;;;;5029525;28;20190;-78
2022/01/25 11:15:58;;;;;;;15.60;8.80;;;5.10;99.90;;;;;;5030055;28;20246;-79
2022/01/25 11:18:26;;;;;;;16.27;10.43;;;5.20;99.90;;;;;;5030164;28;20202;-73
2022/01/25 11:20:57;;;;;;;16.50;10.47;;;5.20;99.90;;;;;;5032500;28;20268;-68
2022/01/25 11:23:25;;;;;;;16.40;11.27;;;5.20;99.90;;;;;;5030968;28;20182;-74
2022/01/25 11:25:54;;;;;;;15.87;10.57;;;5.30;99.90;;;;;;5028203;28;20240;-74
2022/01/25 11:28:19;;;;;;;14.20;10.10;;;5.30;99.90;;;;;;5028881;28;20188;-71
2022/01/25 11:30:47;;;;;;;15.60;9.70;;;5.30;99.90;;;;;;5027401;28;20174;-74
2022/01/25 11:33:14;;;;;;;15.00;9.73;;;5.40;99.90;;;;;;5025381;28;20277;-74
2022/01/25 11:35:40;;;;;;;18.73;12.50;;;5.40;99.90;;;;;;5028319;28;20194;-72
2022/01/25 11:38:11;;;;;;;16.13;11.07;;;5.50;99.90;;;;;;5027963;28;20445;-76
2022/01/25 11:40:44;;;;;;;16.43;11.93;;;5.50;99.90;;;;;;5030531;28;20193;-75
2022/01/25 11:43:34;;;;;;;19.43;12.77;;;5.50;99.90;;;;;;5026487;28;20185;-74
2022/01/25 11:46:07;;;;;;;18.23;13.00;;;5.50;99.90;;;;;;5030073;28;20236;-73
2022/01/25 11:48:46;;;;;;;17.63;12.83;;;5.50;99.90;;;;;;5026334;28;20186;-71
2022/01/25 11:51:22;;;;;;;17.80;12.17;;;5.50;99.90;;;;;;5029298;28;20217;-71
2022/01/25 11:53:52;;;;;;;16.73;12.17;;;5.60;99.90;;;;;;5032851;28;20182;-70
2022/01/25 11:56:18;;;;;;;20.10;13.97;;;5.60;99.90;;;;;;5037956;28;20289;-71
2022/01/25 11:58:57;;;;;;;18.67;13.03;;;5.60;99.90;;;;;;5027569;28;20305;-73
2022/01/25 12:01:29;;;;;;;18.40;12.83;;;5.70;99.90;;;;;;5032430;28;20170;-73
2022/01/25 12:04:05;;;;;;;17.67;13.43;;;5.70;99.90;;;;;;5044014;28;20196;-76
2022/01/25 12:06:44;;;;;;;17.17;13.03;;;5.70;99.90;;;;;;5032928;28;20201;-73
2022/01/25 12:09:21;;;;;;;15.50;11.80;;;5.80;99.90;;;;;;5030230;28;20271;-74
2022/01/25 12:11:58;;;;;;;17.40;12.23;;;5.80;99.90;;;;;;5027236;28;20189;-75
2022/01/25 12:14:29;;;;;;;16.07;11.63;;;5.80;99.90;;;;;;5029361;28;20192;-73
2022/01/25 12:16:58;;;;;;;16.67;13.07;;;5.90;99.90;;;;;;5025179;28;20205;-72
2022/01/25 12:19:44;;;;;;;16.17;12.50;;;5.90;99.90;;;;;;5032760;28;20268;-69
2022/01/25 12:22:39;;;;;;;17.93;12.27;;;6.00;99.90;;;;;;5031102;28;20177;-73
2022/01/25 12:25:22;;;;;;;16.23;11.43;;;6.00;99.90;;;;;;5033974;28;20213;-74
2022/01/25 12:28:05;;;;;;;15.23;11.47;;;6.00;99.90;;;;;;5026830;28;20220;-75
2022/01/25 12:30:39;;;;;;;15.23;11.57;;;6.00;99.90;;;;;;5031884;28;20220;-74
2022/01/25 12:33:23;;;;;;;14.97;10.90;;;6.00;99.90;;;;;;5032403;28;20189;-70
2022/01/25 12:35:50;;;;;;;14.47;11.27;;;6.00;99.90;;;;;;5034758;28;20273;-72
2022/01/25 12:38:24;;;;;;;15.17;11.73;;;6.10;99.90;;;;;;5032093;28;20181;-71
2022/01/25 12:41:02;;;;;;;15.60;11.83;;;6.10;99.90;;;;;;5028385;28;20223;-68
2022/01/25 12:43:34;;;;;;;16.73;12.27;;;6.10;99.90;;;;;;5030178;28;20174;-72
2022/01/25 12:46:10;;;;;;;16.37;12.37;;;6.10;99.90;;;;;;5025954;28;20182;-73
2022/01/25 12:48:46;;;;;;;15.57;12.20;;;6.10;99.90;;;;;;5028551;28;20239;-72
2022/01/25 12:51:19;;;;;;;16.13;12.40;;;6.10;99.90;;;;;;5026991;28;20195;-73
2022/01/25 12:53:47;;;;;;;15.17;11.47;;;6.10;99.90;;;;;;5042794;28;20189;-74
2022/01/25 12:56:17;;;;;;;15.27;11.83;;;6.10;99.90;;;;;;5028634;28;20178;-72
2022/01/25 12:58:47;;;;;;;14.07;11.60;;;6.10;99.90;;;;;;5031312;28;20205;-79
2022/01/25 13:01:21;;;;;;;15.43;11.40;;;6.10;99.90;;;;;;5027773;28;20265;-79
2022/01/25 13:03:55;;;;;;;17.73;12.87;;;6.20;99.90;;;;;;5030152;28;20182;-76
2022/01/25 13:06:36;;;;;;;16.57;12.33;;;6.20;99.90;;;;;;5024969;28;20367;-67
2022/01/25 13:11:50;;;;;;;15.30;11.97;;;6.20;99.90;;;;;;5029423;28;20194;-73
2022/01/25 13:17:13;;;;;;;16.10;12.17;;;6.20;99.90;;;;;;5034910;28;20202;-74
2022/01/25 13:19:49;;;;;;;17.23;12.07;;;6.20;99.90;;;;;;5027696;28;20232;-73
2022/01/25 13:22:20;;;;;;;14.77;11.97;;;6.20;99.90;;;;;;5031446;28;20185;-75
2022/01/25 13:24:59;;;;;;;15.80;12.03;;;6.20;99.90;;;;;;5031042;28;20220;-75
2022/01/25 13:27:30;;;;;;;14.83;11.53;;;6.20;99.90;;;;;;5029916;28;20188;-75
2022/01/25 13:32:50;;;;;;;16.83;11.83;;;6.10;99.90;;;;;;5032819;28;20483;-75
2022/01/25 13:35:34;;;;;;;14.83;11.57;;;6.10;99.90;;;;;;5047671;28;20193;-79
2022/01/25 13:38:19;;;;;;;14.87;11.67;;;6.10;99.90;;;;;;5033616;28;20210;-74
2022/01/25 13:46:33;;;;;;;15.23;12.17;;;6.20;99.90;;;;;;5031968;28;20182;-75
2022/01/25 13:49:14;;;;;;;14.80;11.60;;;6.20;99.90;;;;;;5028804;28;20220;-76
2022/01/25 13:51:49;;;;;;;18.63;13.23;;;6.20;99.90;;;;;;5024273;28;20193;-73
2022/01/25 13:54:18;;;;;;;17.23;13.17;;;6.20;99.90;;;;;;5035097;28;20185;-80
2022/01/25 13:56:46;;;;;;;16.47;11.93;;;6.20;99.90;;;;;;5032606;28;20289;-75
2022/01/25 13:59:15;;;;;;;18.13;12.37;;;6.20;99.90;;;;;;5031425;28;20457;-77
2022/01/25 14:01:42;;;;;;;15.30;11.23;;;6.20;99.90;;;;;;5032968;28;20192;-73
2022/01/25 14:04:19;;;;;;;16.50;11.90;;;6.20;99.90;;;;;;5034792;28;20306;-75
2022/01/25 14:06:56;;;;;;;18.50;13.40;;;6.20;99.90;;;;;;5034047;28;20193;-69
2022/01/25 14:09:31;;;;;;;15.53;12.13;;;6.20;99.90;;;;;;5029385;28;20212;-72
2022/01/25 14:25:47;;;;;;;16.27;12.17;;;6.20;99.90;;;;;;5024608;28;20209;-75
2022/01/25 14:28:23;;;;;;;15.13;11.43;;;6.30;99.90;;;;;;5022456;28;20198;-75
2022/01/25 14:31:01;;;;;;;16.50;12.00;;;6.30;99.90;;;;;;5027782;28;20212;-79
2022/01/25 14:33:34;;;;;;;16.30;12.07;;;6.30;99.90;;;;;;5034179;28;20200;-72
2022/01/25 14:36:04;;;;;;;15.40;12.10;;;6.30;99.90;;;;;;5028401;28;20177;-71
2022/01/25 14:38:36;;;;;;;16.10;12.43;;;6.30;99.90;;;;;;5030016;28;20209;-72
2022/01/25 14:41:12;;;;;;;16.97;13.13;;;6.20;99.90;;;;;;5029081;28;20335;-73
2022/01/25 14:43:39;;;;;;;16.23;12.57;;;6.20;99.90;;;;;;5031355;28;20274;-74
2022/01/25 14:46:10;;;;;;;16.80;12.63;;;6.20;99.90;;;;;;5029566;28;20189;-71
2022/01/25 14:48:38;;;;;;;17.67;12.90;;;6.20;99.90;;;;;;5031868;28;20217;-74
2022/01/25 14:51:06;;;;;;;15.90;11.70;;;6.20;99.90;;;;;;5031392;28;20198;-75
2022/01/25 14:53:35;;;;;;;16.57;12.83;;;6.20;99.90;;;;;;5027951;28;20182;-75
2022/01/25 14:56:05;;;;;;;16.27;13.03;;;6.20;99.90;;;;;;5030527;28;20190;-74
2022/01/25 15:01:22;;;;;;;17.80;13.33;;;6.20;99.90;;;;;;5031961;28;20186;-71
2022/01/25 15:03:51;;;;;;;16.10;12.20;;;6.20;99.90;;;;;;5030552;28;20206;-76
2022/01/25 15:06:20;;;;;;;16.03;12.30;;;6.20;99.90;;;;;;5031690;28;20190;-74
2022/01/25 15:08:55;;;;;;;16.10;12.23;;;6.20;99.90;;;;;;5030265;28;20214;-74
2022/01/25 15:11:29;;;;;;;20.80;12.80;;;6.20;99.90;;;;;;5046997;28;20201;-78
2022/01/25 15:14:04;;;;;;;16.67;11.97;;;6.20;99.90;;;;;;5024228;28;20205;-71
2022/01/25 15:16:32;;;;;;;15.90;12.23;;;6.20;99.90;;;;;;5033006;28;20185;-77
2022/01/25 15:18:57;;;;;;;19.97;13.53;;;6.20;99.90;;;;;;5029037;28;20201;-71
2022/01/25 15:21:24;;;;;;;18.67;14.20;;;6.20;99.90;;;;;;5023689;28;20202;-76
2022/01/25 15:23:52;;;;;;;18.13;13.60;;;6.20;99.90;;;;;;5029799;28;20183;-70